Time;durP1;ratioP1;P1;durP2;ratioP2;P2;SDS_P1;SDS_P2;PMS_P1;PMS_P2;Temp;Humidity;BMP_temperature;BMP_pressure;BME280_temperature;BME280_humidity;BME280_pressure;Samples;Min_cycle;Max_cycle;Signal;HPM_P1;HPM_P2
2022/08/17 00:01:57;;;;;;;35.03;31.27;;;;;;;;;;6270733;22;20176;-72
2022/08/17 00:04:23;;;;;;;33.30;30.10;;;;;;;;;;6272634;22;20183;-72
2022/08/17 00:06:49;;;;;;;31.75;28.55;;;;;;;;;;6272111;22;20599;-72
2022/08/17 00:09:14;;;;;;;32.70;28.45;;;;;;;;;;6265786;22;20153;-71
2022/08/17 00:11:40;;;;;;;30.55;27.52;;;;;;;;;;6272465;22;20148;-71
2022/08/17 00:14:08;;;;;;;31.33;28.13;;;;;;;;;;6271992;22;20156;-71
2022/08/17 00:16:35;;;;;;;31.88;28.70;;;;;;;;;;6271615;22;20536;-71
2022/08/17 00:19:03;;;;;;;31.05;27.90;;;;;;;;;;6271486;22;20521;-71
2022/08/17 00:21:28;;;;;;;31.65;28.77;;;;;;;;;;6271873;22;20243;-71
2022/08/17 00:23:53;;;;;;;31.50;28.50;;;;;;;;;;6272320;22;20539;-71
2022/08/17 00:26:19;;;;;;;33.15;28.63;;;;;;;;;;6270196;22;20520;-72
2022/08/17 00:28:45;;;;;;;28.27;25.30;;;;;;;;;;6273556;22;20175;-72
2022/08/17 00:31:10;;;;;;;30.90;27.70;;;;;;;;;;6271874;22;20168;-72
2022/08/17 00:33:37;;;;;;;30.48;27.23;;;;;;;;;;6274639;22;20140;-72
2022/08/17 00:36:04;;;;;;;27.10;24.42;;;;;;;;;;6274022;22;20148;-72
2022/08/17 00:38:29;;;;;;;28.58;25.80;;;;;;;;;;6274432;22;20141;-72
2022/08/17 00:40:57;;;;;;;28.13;25.42;;;;;;;;;;6272233;22;20562;-72
2022/08/17 00:43:25;;;;;;;28.85;26.10;;;;;;;;;;6273508;22;20179;-72
2022/08/17 00:45:51;;;;;;;29.55;26.60;;;;;;;;;;6274296;22;20527;-72
2022/08/17 00:48:16;;;;;;;31.33;28.25;;;;;;;;;;6274339;22;20144;-72
2022/08/17 00:50:56;;;;;;;28.92;25.92;;;;;;;;;;6272543;22;20179;-72
2022/08/17 00:53:22;;;;;;;26.98;24.25;;;;;;;;;;6271977;22;20147;-72
2022/08/17 00:55:47;;;;;;;29.65;26.73;;;;;;;;;;6268175;22;20164;-71
2022/08/17 00:58:13;;;;;;;31.70;28.30;;;;;;;;;;6259254;22;20155;-71
2022/08/17 01:00:40;;;;;;;29.42;26.52;;;;;;;;;;6261277;22;20627;-72
2022/08/17 01:03:08;;;;;;;29.23;26.55;;;;;;;;;;6261615;22;20176;-72
2022/08/17 01:05:37;;;;;;;28.95;26.15;;;;;;;;;;6271324;22;20493;-72
2022/08/17 01:08:02;;;;;;;28.73;25.95;;;;;;;;;;6274225;22;20172;-72
2022/08/17 01:10:31;;;;;;;28.73;26.02;;;;;;;;;;6272500;22;20222;-72
2022/08/17 01:12:56;;;;;;;28.83;25.88;;;;;;;;;;6272911;22;20144;-72
2022/08/17 01:15:22;;;;;;;27.33;24.45;;;;;;;;;;6270397;22;20479;-71
2022/08/17 01:17:47;;;;;;;26.70;24.10;;;;;;;;;;6273291;22;20198;-72
2022/08/17 01:20:12;;;;;;;27.67;25.08;;;;;;;;;;6272062;22;20611;-72
2022/08/17 01:22:38;;;;;;;25.95;23.65;;;;;;;;;;6273505;22;20210;-72
2022/08/17 01:25:05;;;;;;;26.65;23.42;;;;;;;;;;6272868;22;20144;-72
2022/08/17 01:27:30;;;;;;;26.08;23.48;;;;;;;;;;6273470;22;20622;-72
2022/08/17 01:30:00;;;;;;;23.90;21.60;;;;;;;;;;6273499;22;20160;-72
2022/08/17 01:32:26;;;;;;;27.23;24.63;;;;;;;;;;6272779;22;20152;-73
2022/08/17 01:34:52;;;;;;;29.95;26.80;;;;;;;;;;6271921;22;20654;-73
2022/08/17 01:37:18;;;;;;;29.35;26.45;;;;;;;;;;6272958;22;20493;-72
2022/08/17 01:39:54;;;;;;;30.00;27.08;;;;;;;;;;6271714;22;20176;-73
2022/08/17 01:42:20;;;;;;;29.08;26.27;;;;;;;;;;6271876;22;20219;-72
2022/08/17 01:44:45;;;;;;;32.40;28.60;;;;;;;;;;6273240;22;20584;-73
2022/08/17 01:47:11;;;;;;;32.95;29.55;;;;;;;;;;6273088;22;20148;-73
2022/08/17 01:49:36;;;;;;;33.53;29.63;;;;;;;;;;6273219;22;20283;-74
2022/08/17 01:52:07;;;;;;;32.55;29.42;;;;;;;;;;6272837;22;20152;-75
2022/08/17 01:54:32;;;;;;;32.28;28.90;;;;;;;;;;6273249;22;20299;-75
2022/08/17 01:56:58;;;;;;;35.10;31.63;;;;;;;;;;6273042;22;20491;-74
2022/08/17 01:59:23;;;;;;;34.88;31.60;;;;;;;;;;6271985;22;20168;-75
2022/08/17 02:01:49;;;;;;;35.63;32.13;;;;;;;;;;6272551;22;20160;-75
2022/08/17 02:04:15;;;;;;;39.67;35.67;;;;;;;;;;6272785;22;20151;-75
2022/08/17 02:06:42;;;;;;;37.90;34.10;;;;;;;;;;6274483;22;20157;-76
2022/08/17 02:09:07;;;;;;;38.83;35.05;;;;;;;;;;6273835;22;20145;-73
2022/08/17 02:11:33;;;;;;;40.15;36.28;;;;;;;;;;6272656;22;20342;-74
2022/08/17 02:13:59;;;;;;;37.88;34.03;;;;;;;;;;6274958;22;20596;-75
2022/08/17 02:16:24;;;;;;;37.67;33.97;;;;;;;;;;6275121;22;20167;-74
2022/08/17 02:18:49;;;;;;;32.17;28.97;;;;;;;;;;6272092;22;20182;-74
2022/08/17 02:21:14;;;;;;;26.88;23.98;;;;;;;;;;6274736;22;20392;-74
2022/08/17 02:23:42;;;;;;;25.88;23.45;;;;;;;;;;6275195;22;20153;-75
2022/08/17 02:26:07;;;;;;;22.67;20.48;;;;;;;;;;6274967;22;20144;-75
2022/08/17 02:28:33;;;;;;;20.30;18.35;;;;;;;;;;6275855;22;20144;-75
2022/08/17 02:31:03;;;;;;;17.13;15.47;;;;;;;;;;6274373;22;20235;-74
2022/08/17 02:33:31;;;;;;;15.10;13.80;;;;;;;;;;6273215;22;20366;-74
2022/08/17 02:35:56;;;;;;;13.30;12.13;;;;;;;;;;6275894;22;20152;-75
2022/08/17 02:38:22;;;;;;;12.68;11.38;;;;;;;;;;6273456;22;20159;-74
2022/08/17 02:40:47;;;;;;;10.23;9.35;;;;;;;;;;6273564;22;20175;-74
2022/08/17 02:43:12;;;;;;;9.13;8.33;;;;;;;;;;6275479;22;20203;-74
2022/08/17 02:45:38;;;;;;;8.40;7.60;;;;;;;;;;6275168;22;20700;-75
2022/08/17 02:48:04;;;;;;;8.10;7.38;;;;;;;;;;6275005;22;20408;-75
2022/08/17 02:50:29;;;;;;;8.23;7.43;;;;;;;;;;6274166;22;20164;-75
2022/08/17 02:52:54;;;;;;;17.08;14.02;;;;;;;;;;6275193;22;20152;-74
2022/08/17 02:55:24;;;;;;;25.90;23.33;;;;;;;;;;6274405;22;20152;-73
2022/08/17 02:57:50;;;;;;;28.50;25.60;;;;;;;;;;6275187;22;20206;-72
2022/08/17 03:00:17;;;;;;;15.02;13.57;;;;;;;;;;6274419;22;20183;-75
2022/08/17 03:02:43;;;;;;;17.88;16.20;;;;;;;;;;6274571;22;20664;-71
2022/08/17 03:05:11;;;;;;;17.05;15.45;;;;;;;;;;6274205;22;20203;-73
2022/08/17 03:07:37;;;;;;;13.70;12.40;;;;;;;;;;6275545;22;20244;-73
2022/08/17 03:10:03;;;;;;;15.15;13.68;;;;;;;;;;6274906;22;20160;-73
2022/08/17 03:12:31;;;;;;;21.73;19.60;;;;;;;;;;6273947;22;20148;-73
2022/08/17 03:14:56;;;;;;;22.40;20.05;;;;;;;;;;6274668;22;20144;-73
2022/08/17 03:17:21;;;;;;;26.45;24.05;;;;;;;;;;6274689;22;20193;-73
2022/08/17 03:19:47;;;;;;;25.90;23.50;;;;;;;;;;6274825;22;20176;-73
2022/08/17 03:22:12;;;;;;;28.10;25.20;;;;;;;;;;6273711;22;20808;-73
2022/08/17 03:24:37;;;;;;;29.63;26.83;;;;;;;;;;6273424;22;20372;-73
2022/08/17 03:27:02;;;;;;;31.52;28.45;;;;;;;;;;6274843;22;20141;-73
2022/08/17 03:29:28;;;;;;;32.00;28.90;;;;;;;;;;6274173;22;20163;-73
2022/08/17 03:31:53;;;;;;;34.67;31.13;;;;;;;;;;6272830;22;20162;-73
2022/08/17 03:34:18;;;;;;;35.47;31.97;;;;;;;;;;6274371;22;20152;-73
2022/08/17 03:36:43;;;;;;;35.70;32.10;;;;;;;;;;6274673;22;20365;-73
2022/08/17 03:39:09;;;;;;;37.87;34.00;;;;;;;;;;6274422;22;20190;-73
2022/08/17 03:41:34;;;;;;;37.58;33.33;;;;;;;;;;6273818;22;20408;-73
2022/08/17 03:43:59;;;;;;;36.03;32.25;;;;;;;;;;6274688;22;20527;-72
2022/08/17 03:57:21;;;;;;;37.63;33.78;;;;;;;;;;6274968;22;20143;-72
2022/08/17 03:59:46;;;;;;;39.05;34.92;;;;;;;;;;6273229;22;20180;-73
2022/08/17 04:02:16;;;;;;;40.65;36.50;;;;;;;;;;6272612;22;20183;-73
2022/08/17 04:04:41;;;;;;;36.65;33.05;;;;;;;;;;6272998;22;20171;-73
2022/08/17 04:07:06;;;;;;;38.63;34.60;;;;;;;;;;6274720;22;20584;-75
2022/08/17 04:09:32;;;;;;;36.88;33.13;;;;;;;;;;6273583;22;20219;-72
2022/08/17 04:11:57;;;;;;;38.45;34.28;;;;;;;;;;6274258;22;20144;-73
2022/08/17 04:14:23;;;;;;;40.08;36.03;;;;;;;;;;6274383;22;20152;-73
2022/08/17 04:16:48;;;;;;;41.10;37.05;;;;;;;;;;6274459;22;20225;-73
2022/08/17 04:19:13;;;;;;;39.35;35.28;;;;;;;;;;6272143;22;20540;-73
2022/08/17 04:21:39;;;;;;;36.50;32.88;;;;;;;;;;6272954;22;20178;-72
2022/08/17 04:24:04;;;;;;;38.37;34.20;;;;;;;;;;6274030;22;20144;-73
2022/08/17 04:26:29;;;;;;;38.00;34.10;;;;;;;;;;6273972;22;20431;-73
2022/08/17 04:28:55;;;;;;;36.90;31.98;;;;;;;;;;6273812;22;20152;-73
2022/08/17 04:31:20;;;;;;;34.13;30.60;;;;;;;;;;6270321;22;20159;-74
2022/08/17 04:33:45;;;;;;;32.85;29.35;;;;;;;;;;6273906;22;20144;-73
2022/08/17 04:36:12;;;;;;;32.08;28.60;;;;;;;;;;6273946;22;20144;-73
2022/08/17 04:38:39;;;;;;;32.08;28.65;;;;;;;;;;6271072;22;20192;-73
2022/08/17 04:43:53;;;;;;;31.25;27.88;;;;;;;;;;6273945;22;20183;-73
2022/08/17 04:46:19;;;;;;;31.25;27.30;;;;;;;;;;6274584;22;20136;-73
2022/08/17 04:48:46;;;;;;;31.23;27.52;;;;;;;;;;6272425;22;20156;-72
2022/08/17 04:51:16;;;;;;;30.85;27.42;;;;;;;;;;6270858;22;20172;-72
2022/08/17 04:53:43;;;;;;;30.00;26.83;;;;;;;;;;6272952;22;20197;-72
2022/08/17 04:56:08;;;;;;;33.58;28.00;;;;;;;;;;6273796;22;20148;-72
2022/08/17 04:58:33;;;;;;;31.65;28.38;;;;;;;;;;6274056;22;20140;-71
2022/08/17 05:00:59;;;;;;;33.53;28.17;;;;;;;;;;6272964;22;20569;-75
2022/08/17 05:03:24;;;;;;;31.17;28.10;;;;;;;;;;6273787;22;20454;-75
2022/08/17 05:05:50;;;;;;;30.85;27.80;;;;;;;;;;6274236;22;20211;-75
2022/08/17 05:08:16;;;;;;;30.92;27.65;;;;;;;;;;6271928;22;20239;-75
2022/08/17 05:10:41;;;;;;;29.55;26.40;;;;;;;;;;6273073;22;20671;-76
2022/08/17 05:13:08;;;;;;;30.48;27.33;;;;;;;;;;6274011;22;20168;-75
2022/08/17 05:15:35;;;;;;;29.75;26.83;;;;;;;;;;6272707;22;20148;-76
2022/08/17 05:18:00;;;;;;;30.27;27.35;;;;;;;;;;6273984;22;20155;-76
2022/08/17 05:20:25;;;;;;;30.60;27.40;;;;;;;;;;6271589;22;20176;-75
2022/08/17 05:22:53;;;;;;;28.73;25.65;;;;;;;;;;6270344;22;20245;-75
2022/08/17 05:25:22;;;;;;;28.83;26.05;;;;;;;;;;6272901;22;20148;-76
2022/08/17 05:27:47;;;;;;;29.80;26.48;;;;;;;;;;6271768;22;20615;-76
2022/08/17 05:30:13;;;;;;;28.25;25.52;;;;;;;;;;6273616;22;20164;-75
2022/08/17 05:32:38;;;;;;;28.13;25.27;;;;;;;;;;6271656;22;20294;-75
2022/08/17 05:35:04;;;;;;;28.55;25.67;;;;;;;;;;6274263;22;20588;-74
2022/08/17 05:37:29;;;;;;;29.60;26.63;;;;;;;;;;6273432;22;20155;-75
2022/08/17 05:39:54;;;;;;;25.92;23.23;;;;;;;;;;6273991;22;20246;-75
2022/08/17 05:42:20;;;;;;;26.60;23.80;;;;;;;;;;6275060;22;20219;-75
2022/08/17 05:44:45;;;;;;;27.95;25.15;;;;;;;;;;6277005;22;20613;-75
2022/08/17 05:47:10;;;;;;;25.45;22.33;;;;;;;;;;6275557;22;20589;-75
2022/08/17 05:49:35;;;;;;;26.13;23.37;;;;;;;;;;6276598;22;20619;-75
2022/08/17 05:52:01;;;;;;;23.90;21.52;;;;;;;;;;6274506;22;20381;-74
2022/08/17 05:54:32;;;;;;;23.37;21.07;;;;;;;;;;6276420;22;20229;-75
2022/08/17 05:56:57;;;;;;;23.67;21.33;;;;;;;;;;6275858;22;20808;-76
2022/08/17 05:59:33;;;;;;;22.80;20.53;;;;;;;;;;6277984;22;20210;-76
2022/08/17 06:02:24;;;;;;;23.08;20.70;;;;;;;;;;6270327;22;20799;-77
2022/08/17 06:05:08;;;;;;;22.48;20.30;;;;;;;;;;6273077;22;20155;-77
2022/08/17 06:07:40;;;;;;;22.95;20.73;;;;;;;;;;6276315;22;20145;-77
2022/08/17 06:10:05;;;;;;;23.30;21.05;;;;;;;;;;6276457;22;20217;-74
2022/08/17 06:12:42;;;;;;;23.42;21.13;;;;;;;;;;6276325;22;20152;-76
2022/08/17 06:15:09;;;;;;;20.88;18.77;;;;;;;;;;6278102;22;20145;-75
2022/08/17 06:17:35;;;;;;;22.25;19.88;;;;;;;;;;6277471;22;20480;-76
2022/08/17 06:20:06;;;;;;;21.00;19.00;;;;;;;;;;6277395;22;20171;-75
2022/08/17 06:22:33;;;;;;;19.70;17.80;;;;;;;;;;6274573;22;20187;-76
2022/08/17 06:25:05;;;;;;;20.52;18.42;;;;;;;;;;6279286;22;20156;-76
2022/08/17 06:27:36;;;;;;;19.33;17.55;;;;;;;;;;6275423;22;20220;-75
2022/08/17 06:30:07;;;;;;;19.90;17.83;;;;;;;;;;6271901;22;20573;-75
2022/08/17 06:32:34;;;;;;;18.67;16.98;;;;;;;;;;6275334;22;20142;-75
2022/08/17 06:35:01;;;;;;;17.35;15.63;;;;;;;;;;6273054;22;20148;-75
2022/08/17 06:37:27;;;;;;;16.65;14.88;;;;;;;;;;6274259;22;20152;-75
2022/08/17 06:40:07;;;;;;;14.93;13.73;;;;;;;;;;6274145;22;20176;-76
2022/08/17 06:42:33;;;;;;;12.05;10.95;;;;;;;;;;6272390;22;20659;-75
2022/08/17 06:45:03;;;;;;;11.30;10.20;;;;;;;;;;6276385;22;20140;-75
2022/08/17 06:47:33;;;;;;;11.50;10.30;;;;;;;;;;6274971;22;20155;-75
2022/08/17 06:50:03;;;;;;;10.70;9.70;;;;;;;;;;6276498;22;20164;-75
2022/08/17 06:52:33;;;;;;;10.10;9.20;;;;;;;;;;6271114;22;20204;-74
2022/08/17 06:55:02;;;;;;;8.98;8.15;;;;;;;;;;6275153;22;20148;-74
2022/08/17 06:57:29;;;;;;;8.82;8.13;;;;;;;;;;6271670;22;20685;-73
2022/08/17 07:00:06;;;;;;;8.30;7.60;;;;;;;;;;6272352;22;20194;-74
2022/08/17 07:02:31;;;;;;;8.15;7.07;;;;;;;;;;6272610;22;20164;-74
2022/08/17 07:05:00;;;;;;;7.83;7.13;;;;;;;;;;6273772;22;20209;-75
2022/08/17 07:10:09;;;;;;;8.30;6.95;;;;;;;;;;6274398;22;20338;-75
2022/08/17 07:12:37;;;;;;;8.95;8.07;;;;;;;;;;6273268;22;20907;-74
2022/08/17 07:15:04;;;;;;;8.50;7.60;;;;;;;;;;6273822;22;20149;-74
2022/08/17 07:17:31;;;;;;;8.32;7.53;;;;;;;;;;6273594;22;20149;-75
2022/08/17 07:20:03;;;;;;;9.10;8.30;;;;;;;;;;6272530;22;20221;-75
2022/08/17 07:22:38;;;;;;;8.95;8.15;;;;;;;;;;6273841;22;20199;-76
2022/08/17 07:25:08;;;;;;;7.65;7.00;;;;;;;;;;6274882;22;20212;-75
2022/08/17 07:27:38;;;;;;;7.50;6.80;;;;;;;;;;6269291;22;20152;-75
2022/08/17 07:30:23;;;;;;;8.18;7.47;;;;;;;;;;6273414;22;20207;-75
2022/08/17 07:32:49;;;;;;;7.50;6.78;;;;;;;;;;6251612;22;20152;-73
2022/08/17 07:35:20;;;;;;;8.77;7.18;;;;;;;;;;6268730;22;20626;-74
2022/08/17 07:37:52;;;;;;;7.03;6.35;;;;;;;;;;6270102;22;20156;-74
2022/08/17 07:40:30;;;;;;;7.30;6.68;;;;;;;;;;6271880;22;20172;-73
2022/08/17 07:42:59;;;;;;;7.05;6.45;;;;;;;;;;6273981;22;20172;-74
2022/08/17 07:48:18;;;;;;;6.88;6.22;;;;;;;;;;6272112;22;20171;-73
2022/08/17 07:50:43;;;;;;;7.15;6.43;;;;;;;;;;6274181;22;20160;-74
2022/08/17 07:53:14;;;;;;;7.17;6.50;;;;;;;;;;6272067;22;20194;-74
2022/08/17 07:55:40;;;;;;;7.45;6.75;;;;;;;;;;6270645;22;20415;-74
2022/08/17 07:58:05;;;;;;;7.53;6.82;;;;;;;;;;6272500;22;20156;-74
2022/08/17 08:00:32;;;;;;;7.07;6.55;;;;;;;;;;6274190;22;20622;-74
2022/08/17 08:03:02;;;;;;;7.22;6.53;;;;;;;;;;6272467;22;20183;-74
2022/08/17 08:05:29;;;;;;;7.32;6.72;;;;;;;;;;6297642;22;20600;-73
2022/08/17 08:08:04;;;;;;;7.38;6.68;;;;;;;;;;6274184;22;20231;-74
2022/08/17 08:10:29;;;;;;;8.10;7.40;;;;;;;;;;6274147;22;20168;-73
2022/08/17 08:13:05;;;;;;;8.20;7.40;;;;;;;;;;6272915;22;20649;-74
2022/08/17 08:15:35;;;;;;;8.68;7.88;;;;;;;;;;6274200;22;20493;-74
2022/08/17 08:18:02;;;;;;;7.88;7.28;;;;;;;;;;6275192;22;20144;-73
2022/08/17 08:20:43;;;;;;;8.15;7.47;;;;;;;;;;6274060;22;20514;-73
2022/08/17 08:23:22;;;;;;;8.40;7.60;;;;;;;;;;6271981;22;20191;-73
2022/08/17 08:26:06;;;;;;;8.85;8.07;;;;;;;;;;6272837;22;20133;-75
2022/08/17 08:28:50;;;;;;;10.00;8.55;;;;;;;;;;6273816;22;20194;-73
2022/08/17 08:31:23;;;;;;;9.25;8.40;;;;;;;;;;6297008;22;20164;-73
2022/08/17 08:33:55;;;;;;;11.63;7.88;;;;;;;;;;6274090;22;20213;-73
2022/08/17 08:36:39;;;;;;;9.25;8.30;;;;;;;;;;6298411;22;20583;-73
2022/08/17 08:39:16;;;;;;;10.77;8.63;;;;;;;;;;6274404;22;20136;-73
2022/08/17 08:41:59;;;;;;;9.15;7.70;;;;;;;;;;6273690;22;20194;-76
2022/08/17 08:44:31;;;;;;;9.73;8.93;;;;;;;;;;6272935;22;20155;-74
2022/08/17 08:47:17;;;;;;;11.20;10.15;;;;;;;;;;6272175;22;20491;-74
2022/08/17 08:49:42;;;;;;;11.20;10.20;;;;;;;;;;6272289;22;20527;-74
2022/08/17 08:52:32;;;;;;;12.70;11.50;;;;;;;;;;6273004;22;20152;-74
2022/08/17 08:55:07;;;;;;;13.45;11.98;;;;;;;;;;6274576;22;20139;-74
2022/08/17 08:57:39;;;;;;;12.48;11.38;;;;;;;;;;6274176;22;20144;-75
2022/08/17 09:00:15;;;;;;;12.85;11.75;;;;;;;;;;6274434;22;20184;-74
2022/08/17 09:02:50;;;;;;;13.38;11.98;;;;;;;;;;6273402;22;20612;-73
2022/08/17 09:05:25;;;;;;;13.23;11.93;;;;;;;;;;6274726;22;20576;-73
2022/08/17 09:07:53;;;;;;;13.20;11.90;;;;;;;;;;6274039;22;20148;-73
2022/08/17 09:10:18;;;;;;;14.65;12.98;;;;;;;;;;6274837;22;20233;-73
2022/08/17 09:12:47;;;;;;;13.63;12.43;;;;;;;;;;6274363;22;20160;-73
2022/08/17 09:15:32;;;;;;;13.27;12.02;;;;;;;;;;6273268;22;20148;-73
2022/08/17 09:17:57;;;;;;;13.10;11.88;;;;;;;;;;6274452;22;20148;-74
2022/08/17 09:20:32;;;;;;;13.00;11.98;;;;;;;;;;6273737;22;20176;-73
2022/08/17 09:23:01;;;;;;;13.88;12.50;;;;;;;;;;6274060;22;20172;-74
2022/08/17 09:25:30;;;;;;;13.82;12.48;;;;;;;;;;6273312;22;20155;-73
2022/08/17 09:28:06;;;;;;;13.27;10.68;;;;;;;;;;6274595;22;20210;-73
2022/08/17 09:30:36;;;;;;;9.48;8.57;;;;;;;;;;6272564;22;20160;-72
2022/08/17 09:33:05;;;;;;;8.48;7.55;;;;;;;;;;6297962;22;20626;-73
2022/08/17 09:35:33;;;;;;;8.25;7.05;;;;;;;;;;6273158;22;20179;-73
2022/08/17 09:37:58;;;;;;;6.38;5.82;;;;;;;;;;6272356;22;20158;-73
2022/08/17 09:40:53;;;;;;;7.30;6.70;;;;;;;;;;6273083;22;20199;-73
2022/08/17 09:43:36;;;;;;;10.13;6.60;;;;;;;;;;6165131;22;20193;-73
2022/08/17 09:46:07;;;;;;;6.72;6.10;;;;;;;;;;6274126;22;20220;-73
2022/08/17 09:48:35;;;;;;;6.70;6.10;;;;;;;;;;6272445;22;20164;-73
2022/08/17 09:51:05;;;;;;;6.97;6.35;;;;;;;;;;6273218;22;20188;-73
2022/08/17 09:53:31;;;;;;;6.88;6.28;;;;;;;;;;6273369;22;20137;-74
2022/08/17 09:56:10;;;;;;;8.20;6.63;;;;;;;;;;6273342;22;20148;-74
2022/08/17 09:58:49;;;;;;;9.57;6.45;;;;;;;;;;6274086;22;20221;-74
2022/08/17 10:01:15;;;;;;;8.18;7.20;;;;;;;;;;6273180;22;20267;-74
2022/08/17 10:03:40;;;;;;;7.70;7.10;;;;;;;;;;6274193;22;20177;-74
2022/08/17 10:06:14;;;;;;;7.25;6.57;;;;;;;;;;6274153;22;20148;-74
2022/08/17 10:08:53;;;;;;;7.95;7.07;;;;;;;;;;6274127;22;20148;-73
2022/08/17 10:12:14;;;;;;;7.15;6.18;;;;;;;;;;6273325;22;20247;-73
2022/08/17 10:14:18;;;;;;;6.18;5.68;;;;;;;;;;6274133;22;20427;-73
2022/08/17 10:16:48;;;;;;;6.20;5.60;;;;;;;;;;6273309;22;20136;-73
2022/08/17 10:19:13;;;;;;;6.28;5.47;;;;;;;;;;6273641;22;20171;-73
2022/08/17 10:27:32;;;;;;;5.55;5.05;;;;;;;;;;6276236;22;20151;-73
2022/08/17 10:30:03;;;;;;;5.85;5.35;;;;;;;;;;6274440;22;20168;-73
2022/08/17 10:32:31;;;;;;;6.07;5.55;;;;;;;;;;6275416;22;20136;-73
2022/08/17 10:35:15;;;;;;;5.93;5.43;;;;;;;;;;6275499;22;20155;-73
2022/08/17 10:37:59;;;;;;;6.05;5.43;;;;;;;;;;6273612;22;20144;-74
2022/08/17 10:40:31;;;;;;;6.00;5.40;;;;;;;;;;6275742;22;20199;-74
2022/08/17 10:43:03;;;;;;;6.15;5.60;;;;;;;;;;6275368;22;20517;-73
2022/08/17 10:45:32;;;;;;;5.65;5.15;;;;;;;;;;6275867;22;20148;-73
2022/08/17 10:48:02;;;;;;;5.88;5.28;;;;;;;;;;6275106;22;20226;-73
2022/08/17 10:50:46;;;;;;;8.52;5.95;;;;;;;;;;6275817;22;20234;-73
2022/08/17 10:53:35;;;;;;;7.15;5.93;;;;;;;;;;6275911;22;20152;-73
2022/08/17 10:56:12;;;;;;;6.18;5.60;;;;;;;;;;6258575;22;20195;-73
2022/08/17 10:58:48;;;;;;;6.25;5.60;;;;;;;;;;6274302;22;20183;-73
2022/08/17 11:01:13;;;;;;;5.22;4.82;;;;;;;;;;6274934;22;20188;-71
2022/08/17 11:03:53;;;;;;;6.07;5.55;;;;;;;;;;6275371;22;20229;-70
2022/08/17 11:06:44;;;;;;;5.85;5.30;;;;;;;;;;6275649;22;20140;-71
2022/08/17 11:09:27;;;;;;;6.03;4.90;;;;;;;;;;6274416;22;20136;-70
2022/08/17 11:12:14;;;;;;;6.00;5.47;;;;;;;;;;6273331;22;20663;-71
2022/08/17 11:14:42;;;;;;;7.95;6.20;;;;;;;;;;6273160;22;20403;-71
2022/08/17 11:17:34;;;;;;;6.38;5.78;;;;;;;;;;6275643;22;20250;-71
2022/08/17 11:20:29;;;;;;;5.95;5.40;;;;;;;;;;6299768;22;20183;-71
2022/08/17 11:22:56;;;;;;;6.45;5.85;;;;;;;;;;6165714;22;20615;-71
2022/08/17 11:25:30;;;;;;;6.10;5.55;;;;;;;;;;6275524;22;20133;-72
2022/08/17 11:28:04;;;;;;;6.25;5.65;;;;;;;;;;6274475;22;20150;-72
2022/08/17 11:30:47;;;;;;;6.55;6.00;;;;;;;;;;6275531;22;20160;-72
2022/08/17 11:33:27;;;;;;;7.25;6.55;;;;;;;;;;6299344;22;20496;-71
2022/08/17 11:35:59;;;;;;;7.28;6.57;;;;;;;;;;6275406;22;20144;-72
2022/08/17 11:38:30;;;;;;;6.90;6.32;;;;;;;;;;6274852;22;20139;-72
2022/08/17 11:40:58;;;;;;;7.07;6.47;;;;;;;;;;6274965;22;20557;-72
2022/08/17 11:43:29;;;;;;;8.07;7.35;;;;;;;;;;6274453;22;20168;-72
2022/08/17 11:45:54;;;;;;;8.15;7.45;;;;;;;;;;6274259;22;20488;-73
2022/08/17 11:51:43;;;;;;;8.15;7.20;;;;;;;;;;6274831;22;20139;-73
2022/08/17 11:54:08;;;;;;;10.00;8.95;;;;;;;;;;6274704;22;20504;-73
2022/08/17 11:56:33;;;;;;;9.20;8.40;;;;;;;;;;6273445;22;20152;-73
2022/08/17 11:58:59;;;;;;;9.93;9.00;;;;;;;;;;6275381;22;20145;-73
2022/08/17 12:01:25;;;;;;;11.20;10.07;;;;;;;;;;6274785;22;20171;-73
2022/08/17 12:03:55;;;;;;;10.63;9.57;;;;;;;;;;6274436;22;20176;-73
2022/08/17 12:06:23;;;;;;;10.15;9.13;;;;;;;;;;6274862;22;20626;-73
2022/08/17 12:08:53;;;;;;;11.27;10.25;;;;;;;;;;6274883;22;20153;-73
2022/08/17 12:11:22;;;;;;;11.98;10.77;;;;;;;;;;6273870;22;20619;-73
2022/08/17 12:13:50;;;;;;;12.18;10.68;;;;;;;;;;6274723;22;20178;-73
2022/08/17 12:16:16;;;;;;;12.45;11.25;;;;;;;;;;6273785;22;20144;-73
2022/08/17 12:18:47;;;;;;;14.15;12.95;;;;;;;;;;6273393;22;20184;-74
2022/08/17 12:21:23;;;;;;;14.25;12.80;;;;;;;;;;6272890;22;20502;-73
2022/08/17 12:23:55;;;;;;;14.13;12.82;;;;;;;;;;6274405;22;20188;-73
2022/08/17 12:26:21;;;;;;;14.80;13.32;;;;;;;;;;6274820;22;20144;-73
2022/08/17 12:28:48;;;;;;;15.45;14.05;;;;;;;;;;6273002;22;20148;-73
2022/08/17 12:31:19;;;;;;;15.90;14.57;;;;;;;;;;6274416;22;20214;-74
2022/08/17 12:33:45;;;;;;;16.20;14.70;;;;;;;;;;6274242;22;20129;-74
2022/08/17 12:36:15;;;;;;;17.50;15.63;;;;;;;;;;6272541;22;20600;-73
2022/08/17 12:38:48;;;;;;;18.20;16.45;;;;;;;;;;6275092;22;20220;-73
2022/08/17 12:41:27;;;;;;;19.35;17.55;;;;;;;;;;6274343;22;20168;-73
2022/08/17 12:43:57;;;;;;;18.60;17.00;;;;;;;;;;6273016;22;20553;-74
2022/08/17 12:46:22;;;;;;;17.83;16.27;;;;;;;;;;6273341;22;20144;-73
2022/08/17 12:48:48;;;;;;;18.23;16.63;;;;;;;;;;6274025;22;20144;-72
2022/08/17 12:51:14;;;;;;;18.70;16.90;;;;;;;;;;6274306;22;20211;-73
2022/08/17 12:53:41;;;;;;;20.73;18.85;;;;;;;;;;6273719;22;20497;-73
2022/08/17 12:56:09;;;;;;;21.92;19.92;;;;;;;;;;6273919;22;20155;-71
2022/08/17 12:58:36;;;;;;;22.38;20.20;;;;;;;;;;6274896;22;20179;-73
2022/08/17 13:01:08;;;;;;;20.90;19.00;;;;;;;;;;6271949;22;20188;-73
2022/08/17 13:03:42;;;;;;;20.75;18.58;;;;;;;;;;6274242;22;20215;-73
2022/08/17 13:06:09;;;;;;;20.45;18.58;;;;;;;;;;6274691;22;20206;-73
2022/08/17 13:08:36;;;;;;;20.55;18.83;;;;;;;;;;6274459;22;20140;-73
2022/08/17 13:11:03;;;;;;;20.30;18.70;;;;;;;;;;6274161;22;20861;-73
2022/08/17 13:13:33;;;;;;;20.45;18.65;;;;;;;;;;6274176;22;20201;-73
2022/08/17 13:16:00;;;;;;;20.30;18.45;;;;;;;;;;6274055;22;20151;-73
2022/08/17 13:18:45;;;;;;;20.92;19.08;;;;;;;;;;6274132;22;20148;-73
2022/08/17 13:21:17;;;;;;;19.50;17.88;;;;;;;;;;6271950;22;20255;-74
2022/08/17 13:23:52;;;;;;;20.85;18.98;;;;;;;;;;6271272;22;20176;-73
2022/08/17 13:26:26;;;;;;;18.38;16.65;;;;;;;;;;6273330;22;20136;-73
2022/08/17 13:28:51;;;;;;;18.98;17.30;;;;;;;;;;6274331;22;20156;-73
2022/08/17 13:31:31;;;;;;;17.97;16.37;;;;;;;;;;6273438;22;20250;-72
2022/08/17 13:34:12;;;;;;;18.85;17.23;;;;;;;;;;6274352;22;20365;-73
2022/08/17 13:36:37;;;;;;;17.67;16.08;;;;;;;;;;6273646;22;20158;-73
2022/08/17 13:39:05;;;;;;;18.80;17.13;;;;;;;;;;6274122;22;20178;-73
2022/08/17 13:41:34;;;;;;;18.25;16.75;;;;;;;;;;6272801;22;20470;-73
2022/08/17 13:44:00;;;;;;;17.42;15.93;;;;;;;;;;6274226;22;20152;-72
2022/08/17 13:46:29;;;;;;;16.75;15.05;;;;;;;;;;6273795;22;20144;-72
2022/08/17 13:48:56;;;;;;;18.63;16.77;;;;;;;;;;6274484;22;20596;-72
2022/08/17 13:51:40;;;;;;;15.68;14.27;;;;;;;;;;6273739;22;20145;-73
2022/08/17 13:54:07;;;;;;;16.10;14.70;;;;;;;;;;6273864;22;20144;-72
2022/08/17 13:56:35;;;;;;;16.58;15.18;;;;;;;;;;6273952;22;20149;-73
2022/08/17 13:59:03;;;;;;;16.27;14.75;;;;;;;;;;6274112;22;20156;-71
2022/08/17 14:01:37;;;;;;;15.70;14.40;;;;;;;;;;6273837;22;20237;-73
2022/08/17 14:04:04;;;;;;;15.25;13.75;;;;;;;;;;6274642;22;20557;-72
2022/08/17 14:06:31;;;;;;;15.30;13.88;;;;;;;;;;6275369;22;20604;-72
2022/08/17 14:08:56;;;;;;;15.70;14.30;;;;;;;;;;6276204;22;20380;-72
2022/08/17 14:11:22;;;;;;;15.38;13.98;;;;;;;;;;6275996;22;20172;-72
2022/08/17 14:13:47;;;;;;;15.60;13.93;;;;;;;;;;6275336;22;20145;-72
2022/08/17 14:16:13;;;;;;;15.43;14.07;;;;;;;;;;6276541;22;20155;-72
2022/08/17 14:18:38;;;;;;;16.08;14.57;;;;;;;;;;6275470;22;20153;-72
2022/08/17 14:21:03;;;;;;;17.83;14.70;;;;;;;;;;6275584;22;20191;-72
2022/08/17 14:23:30;;;;;;;17.45;15.88;;;;;;;;;;6275135;22;20409;-72
2022/08/17 14:25:55;;;;;;;17.10;15.23;;;;;;;;;;6274670;22;20504;-72
2022/08/17 14:28:21;;;;;;;17.43;15.80;;;;;;;;;;6275776;22;20151;-72
2022/08/17 14:30:47;;;;;;;16.52;14.93;;;;;;;;;;6274022;22;20410;-72
2022/08/17 14:33:13;;;;;;;17.67;16.00;;;;;;;;;;6275282;22;20239;-73
2022/08/17 14:35:38;;;;;;;17.75;16.08;;;;;;;;;;6275987;22;20429;-73
2022/08/17 14:38:04;;;;;;;15.32;14.02;;;;;;;;;;6275383;22;20622;-72
2022/08/17 14:40:30;;;;;;;16.48;14.93;;;;;;;;;;6275174;22;20168;-73
2022/08/17 14:42:56;;;;;;;16.70;15.00;;;;;;;;;;6273891;22;20172;-73
2022/08/17 14:45:22;;;;;;;16.35;14.85;;;;;;;;;;6276088;22;20145;-73
2022/08/17 14:47:47;;;;;;;15.77;14.38;;;;;;;;;;6276055;22;20167;-73
2022/08/17 14:50:18;;;;;;;16.20;14.75;;;;;;;;;;6275485;22;20206;-73
2022/08/17 14:52:43;;;;;;;16.00;14.60;;;;;;;;;;6275197;22;20143;-72
2022/08/17 14:55:08;;;;;;;14.33;13.03;;;;;;;;;;6275506;22;20495;-71
2022/08/17 14:57:33;;;;;;;14.70;13.30;;;;;;;;;;6275331;22;20373;-72
2022/08/17 14:59:59;;;;;;;14.97;13.73;;;;;;;;;;6274129;22;20187;-72
2022/08/17 15:02:27;;;;;;;14.30;13.10;;;;;;;;;;6275328;22;20458;-72
2022/08/17 15:04:55;;;;;;;14.27;12.98;;;;;;;;;;6273335;22;20622;-71